createdAt,value
2022-08-09T00:00:31.128Z,0.00
2022-08-09T00:01:42.788Z,0.00
2022-08-09T00:02:31.348Z,0.00
2022-08-09T00:04:05.801Z,0.00
2022-08-09T00:04:34.120Z,0.00
2022-08-09T00:06:15.861Z,0.00
2022-08-09T00:06:32.003Z,0.00
2022-08-09T00:07:31.107Z,0.00
2022-08-09T00:08:31.824Z,0.00
2022-08-09T00:09:31.184Z,0.00
2022-08-09T00:10:31.097Z,0.00
2022-08-09T00:12:03.148Z,0.00
2022-08-09T00:12:34.750Z,0.00
2022-08-09T00:13:31.784Z,0.00
2022-08-09T00:14:38.115Z,0.00
2022-08-09T00:15:57.441Z,0.00
2022-08-09T00:16:38.297Z,0.00
2022-08-09T00:18:10.625Z,0.00
2022-08-09T00:18:31.423Z,0.00
2022-08-09T00:19:31.072Z,0.00
2022-08-09T00:20:31.620Z,0.00
2022-08-09T00:21:31.069Z,0.00
2022-08-09T00:22:35.054Z,0.00
2022-08-09T00:23:55.379Z,0.00
2022-08-09T00:24:31.058Z,0.00
2022-08-09T00:25:33.080Z,0.00
2022-08-09T00:26:32.994Z,0.00
2022-08-09T00:27:31.053Z,0.00
2022-08-09T00:28:31.050Z,0.00
2022-08-09T00:29:39.628Z,0.00
2022-08-09T00:30:31.046Z,0.00
2022-08-09T00:31:58.927Z,0.00
2022-08-09T00:32:31.038Z,0.00
2022-08-09T00:33:32.600Z,0.00
2022-08-09T00:34:33.443Z,0.00
2022-08-09T00:35:42.821Z,0.00
2022-08-09T00:36:31.027Z,0.00
2022-08-09T00:37:32.293Z,0.00
2022-08-09T00:38:31.022Z,0.00
2022-08-09T00:40:10.254Z,0.00
2022-08-09T00:40:31.334Z,0.00
2022-08-09T00:44:11.266Z,0.00
2022-08-09T00:44:13.998Z,0.00
2022-08-09T00:44:14.882Z,0.00
2022-08-09T00:44:31.301Z,0.00
2022-08-09T00:45:31.002Z,0.00
2022-08-09T00:46:56.379Z,0.00
2022-08-09T00:47:35.830Z,0.00
2022-08-09T00:48:30.991Z,0.00
2022-08-09T00:49:31.177Z,0.00
2022-08-09T00:50:31.006Z,0.00
2022-08-09T00:51:34.106Z,0.00
2022-08-09T00:52:31.255Z,0.00
2022-08-09T00:53:30.977Z,0.00
2022-08-09T00:54:31.448Z,0.00
2022-08-09T00:56:02.947Z,0.00
2022-08-09T00:56:30.969Z,0.00
2022-08-09T00:57:34.931Z,0.00
2022-08-09T00:58:30.967Z,0.00
2022-08-09T00:59:40.606Z,0.00
2022-08-09T01:00:30.957Z,0.00
2022-08-09T01:01:32.288Z,0.00
2022-08-09T01:02:31.120Z,0.00
2022-08-09T01:03:30.950Z,0.00
2022-08-09T01:04:30.944Z,0.00
2022-08-09T01:05:51.027Z,0.00
2022-08-09T01:06:53.456Z,0.00
2022-08-09T01:07:37.944Z,0.00
2022-08-09T01:08:30.930Z,0.00
2022-08-09T01:09:35.903Z,0.00
2022-08-09T01:10:30.928Z,0.00
2022-08-09T01:11:30.950Z,0.00
2022-08-09T01:12:31.167Z,0.00
2022-08-09T01:13:31.217Z,0.00
2022-08-09T01:14:30.914Z,0.00
2022-08-09T01:15:31.315Z,0.00
2022-08-09T01:16:30.908Z,0.00
2022-08-09T01:17:34.249Z,0.00
2022-08-09T01:18:31.555Z,0.00
2022-08-09T01:19:39.928Z,0.00
2022-08-09T01:20:30.895Z,0.00
2022-08-09T01:21:41.013Z,0.00
2022-08-09T01:22:31.154Z,0.00
2022-08-09T01:24:01.780Z,0.00
2022-08-09T01:24:30.880Z,0.00
2022-08-09T01:25:30.878Z,0.00
2022-08-09T01:26:30.876Z,0.00
2022-08-09T01:27:30.875Z,0.00
2022-08-09T01:28:30.866Z,0.00
2022-08-09T01:29:41.249Z,0.00
2022-08-09T01:30:35.855Z,0.00
2022-08-09T01:32:31.187Z,0.00
2022-08-09T01:32:34.295Z,0.00
2022-08-09T01:33:30.852Z,0.00
2022-08-09T01:34:30.877Z,0.00
2022-08-09T01:35:37.578Z,0.00
2022-08-09T01:36:30.844Z,0.00
2022-08-09T01:38:05.581Z,0.00
2022-08-09T01:38:30.835Z,0.00
2022-08-09T01:39:30.890Z,0.00
2022-08-09T01:40:30.831Z,0.00
2022-08-09T01:41:30.829Z,0.00
2022-08-09T01:42:30.987Z,0.00
2022-08-09T01:43:30.822Z,0.00
2022-08-09T01:44:30.815Z,0.00
2022-08-09T01:45:30.814Z,0.00
2022-08-09T01:46:31.662Z,0.00
2022-08-09T01:47:31.423Z,0.00
2022-08-09T01:48:31.585Z,0.00
2022-08-09T01:49:38.771Z,0.00
2022-08-09T01:50:37.259Z,0.00
2022-08-09T01:51:32.216Z,0.00
2022-08-09T01:52:30.954Z,0.00
2022-08-09T01:53:41.187Z,0.00
2022-08-09T01:54:32.943Z,0.00
2022-08-09T01:55:30.784Z,0.00
2022-08-09T01:56:30.777Z,0.00
2022-08-09T01:57:30.776Z,0.00
2022-08-09T01:58:30.770Z,0.00
2022-08-09T01:59:32.558Z,0.00
2022-08-09T02:00:35.799Z,0.00
2022-08-09T02:01:58.628Z,0.00
2022-08-09T02:02:31.449Z,0.00
2022-08-09T02:03:30.754Z,0.00
2022-08-09T02:04:30.750Z,0.00
2022-08-09T02:05:37.938Z,0.00
2022-08-09T02:06:32.268Z,0.00
2022-08-09T02:08:35.774Z,0.00
2022-08-09T02:08:36.065Z,0.00
2022-08-09T02:09:42.134Z,0.00
2022-08-09T02:10:30.733Z,0.00
2022-08-09T02:11:40.240Z,0.00
2022-08-09T02:12:30.849Z,0.00
2022-08-09T02:13:40.170Z,0.00
2022-08-09T02:14:30.714Z,0.00
2022-08-09T02:15:36.233Z,0.00
2022-08-09T02:16:32.103Z,0.00
2022-08-09T02:18:01.537Z,0.00
2022-08-09T02:18:30.701Z,0.00
2022-08-09T02:19:38.799Z,0.00
2022-08-09T02:20:32.808Z,0.00
2022-08-09T02:21:30.691Z,0.00
2022-08-09T02:22:34.942Z,0.00
2022-08-09T02:23:31.939Z,0.00
2022-08-09T02:24:30.682Z,0.00
2022-08-09T02:25:30.681Z,0.00
2022-08-09T02:26:30.677Z,0.00
2022-08-09T02:27:57.864Z,0.00
2022-08-09T02:28:30.665Z,0.00
2022-08-09T02:29:31.311Z,0.00
2022-08-09T02:30:30.662Z,0.00
2022-08-09T02:31:31.416Z,0.00
2022-08-09T02:32:30.863Z,0.00
2022-08-09T02:33:38.371Z,0.00
2022-08-09T02:34:41.728Z,0.00
2022-08-09T02:36:01.604Z,0.00
2022-08-09T02:36:30.641Z,0.00
2022-08-09T02:37:31.881Z,0.00
2022-08-09T02:38:30.630Z,0.00
2022-08-09T02:39:33.455Z,0.00
2022-08-09T02:40:30.701Z,0.00
2022-08-09T02:41:30.618Z,0.00
2022-08-09T02:42:30.776Z,0.00
2022-08-09T02:43:30.610Z,0.00
2022-08-09T02:44:30.636Z,0.00
2022-08-09T02:45:30.605Z,0.00
2022-08-09T02:46:30.604Z,0.00
2022-08-09T02:47:33.713Z,0.00
2022-08-09T02:48:31.700Z,0.00
2022-08-09T02:49:38.974Z,0.00
2022-08-09T02:50:30.587Z,0.00
2022-08-09T02:51:32.992Z,0.00
2022-08-09T02:52:30.917Z,0.00
2022-08-09T02:53:30.575Z,0.00
2022-08-09T02:54:30.574Z,0.00
2022-08-09T02:55:46.681Z,0.00
2022-08-09T02:56:30.564Z,0.00
2022-08-09T02:57:30.561Z,0.00
2022-08-09T02:58:36.848Z,0.00
2022-08-09T02:59:36.376Z,0.00
2022-08-09T03:00:30.593Z,0.00
2022-08-09T03:01:58.622Z,0.00
2022-08-09T03:02:30.977Z,0.00
2022-08-09T03:03:37.349Z,0.00
2022-08-09T03:04:30.575Z,0.00
2022-08-09T03:05:34.179Z,0.00
2022-08-09T03:06:30.528Z,0.00
2022-08-09T03:07:30.529Z,0.00
2022-08-09T03:08:30.520Z,0.00
2022-08-09T03:09:33.701Z,0.00
2022-08-09T03:10:30.516Z,0.00
2022-08-09T03:12:09.850Z,0.00
2022-08-09T03:12:30.877Z,0.00
2022-08-09T03:13:43.386Z,0.00
2022-08-09T03:14:30.496Z,0.00
2022-08-09T03:15:40.462Z,0.00
2022-08-09T03:16:30.488Z,0.00
2022-08-09T03:17:30.486Z,0.00
2022-08-09T03:18:31.311Z,0.00
2022-08-09T03:19:59.278Z,0.00
2022-08-09T03:20:30.477Z,0.00
2022-08-09T03:21:36.555Z,0.00
2022-08-09T03:22:41.789Z,0.00
2022-08-09T03:23:30.463Z,0.00
2022-08-09T03:24:31.211Z,0.00
2022-08-09T03:25:56.918Z,0.00
2022-08-09T03:26:31.980Z,0.00
2022-08-09T03:27:30.449Z,0.00
2022-08-09T03:28:30.450Z,0.00
2022-08-09T03:29:30.444Z,0.00
2022-08-09T03:30:33.450Z,0.00
2022-08-09T03:31:30.433Z,0.00
2022-08-09T03:32:30.902Z,0.00
2022-08-09T03:33:54.888Z,0.00
2022-08-09T03:34:30.421Z,0.00
2022-08-09T03:36:11.872Z,0.00
2022-08-09T03:36:30.417Z,0.00
2022-08-09T03:37:55.628Z,4.00
2022-08-09T03:38:30.663Z,4.00
2022-08-09T03:39:37.535Z,0.00
2022-08-09T03:40:30.836Z,0.00
2022-08-09T03:41:45.916Z,4.00
2022-08-09T03:42:30.869Z,0.00
2022-08-09T03:43:32.118Z,4.00
2022-08-09T03:44:32.079Z,0.00
2022-08-09T03:46:04.404Z,4.00
2022-08-09T03:46:30.497Z,4.00
2022-08-09T03:47:30.426Z,4.00
2022-08-09T03:48:30.936Z,8.00
2022-08-09T03:49:35.526Z,8.00
2022-08-09T03:50:32.061Z,8.00
2022-08-09T03:51:43.919Z,12.00
2022-08-09T03:52:30.537Z,8.00
2022-08-09T03:53:32.248Z,12.00
2022-08-09T03:54:31.391Z,16.00
2022-08-09T03:55:30.340Z,16.00
2022-08-09T03:56:30.337Z,16.00
2022-08-09T03:57:30.336Z,24.00
2022-08-09T03:58:30.352Z,24.00
2022-08-09T03:59:53.759Z,28.00
2022-08-09T04:00:30.354Z,32.00
2022-08-09T04:01:30.317Z,36.00
2022-08-09T04:02:30.730Z,40.00
2022-08-09T04:03:45.969Z,44.00
2022-08-09T04:04:32.545Z,48.00
2022-08-09T04:05:32.262Z,52.00
2022-08-09T04:06:30.298Z,56.00
2022-08-09T04:07:47.672Z,64.00
2022-08-09T04:08:30.287Z,68.00
2022-08-09T04:09:41.883Z,76.00
2022-08-09T04:10:30.626Z,84.00
2022-08-09T04:11:30.279Z,88.00
2022-08-09T04:12:31.711Z,96.00
2022-08-09T04:14:37.008Z,100.00
2022-08-09T04:14:37.327Z,112.00
2022-08-09T04:15:52.454Z,116.00
2022-08-09T04:16:30.255Z,124.00
2022-08-09T04:17:30.252Z,136.00
2022-08-09T04:18:30.247Z,140.00
2022-08-09T04:19:42.982Z,148.00
2022-08-09T04:20:30.241Z,160.00
2022-08-09T04:21:30.235Z,168.00
2022-08-09T04:22:30.471Z,176.00
2022-08-09T04:23:30.226Z,184.00
2022-08-09T04:24:30.225Z,196.00
2022-08-09T04:25:30.220Z,204.00
2022-08-09T04:26:35.107Z,212.00
2022-08-09T04:27:30.214Z,224.00
2022-08-09T04:28:33.525Z,232.00
2022-08-09T04:29:30.204Z,244.00
2022-08-09T04:30:30.257Z,248.00
2022-08-09T04:31:37.610Z,260.00
2022-08-09T04:32:34.040Z,272.00
2022-08-09T04:33:30.186Z,276.00
2022-08-09T04:34:30.509Z,288.00
2022-08-09T04:35:32.768Z,296.00
2022-08-09T04:36:30.177Z,308.00
2022-08-09T04:37:45.789Z,316.00
2022-08-09T04:38:30.167Z,320.00
2022-08-09T04:39:31.241Z,332.00
2022-08-09T04:40:36.150Z,340.00
2022-08-09T04:41:32.772Z,352.00
2022-08-09T04:42:30.428Z,360.00
2022-08-09T04:43:30.145Z,368.00
2022-08-09T04:44:30.144Z,376.00
2022-08-09T04:45:30.759Z,384.00
2022-08-09T04:46:37.295Z,392.00
2022-08-09T04:47:44.970Z,400.00
2022-08-09T04:48:33.487Z,408.00
2022-08-09T04:49:52.254Z,420.00
2022-08-09T04:50:31.951Z,424.00
2022-08-09T04:51:30.116Z,432.00
2022-08-09T04:52:30.113Z,440.00
2022-08-09T04:53:31.380Z,448.00
2022-08-09T04:54:30.105Z,456.00
2022-08-09T04:55:38.207Z,464.00
2022-08-09T04:56:30.096Z,472.00
2022-08-09T04:57:54.277Z,480.00
2022-08-09T04:58:31.845Z,488.00
2022-08-09T04:59:30.332Z,496.00
2022-08-09T05:00:31.938Z,504.00
2022-08-09T05:01:30.075Z,512.00
2022-08-09T05:02:30.188Z,520.00
2022-08-09T05:03:42.722Z,524.00
2022-08-09T05:04:31.042Z,532.00
2022-08-09T05:05:31.925Z,540.00
2022-08-09T05:06:35.231Z,544.00
2022-08-09T05:07:32.055Z,552.00
2022-08-09T05:08:30.059Z,560.00
2022-08-09T05:09:42.330Z,564.00
2022-08-09T05:10:30.039Z,572.00
2022-08-09T05:11:30.527Z,580.00
2022-08-09T05:12:30.029Z,588.00
2022-08-09T05:13:32.926Z,592.00
2022-08-09T05:14:30.022Z,600.00
2022-08-09T05:15:39.183Z,608.00
2022-08-09T05:16:32.027Z,612.00
2022-08-09T05:18:39.912Z,620.00
2022-08-09T05:18:50.536Z,628.00
2022-08-09T05:19:31.724Z,636.00
2022-08-09T05:20:30.496Z,648.00
2022-08-09T05:21:46.522Z,660.00
2022-08-09T05:22:36.360Z,668.00
2022-08-09T05:23:53.702Z,676.00
2022-08-09T05:24:29.983Z,684.00
2022-08-09T05:25:32.639Z,692.00
2022-08-09T05:26:45.509Z,696.00
2022-08-09T05:27:30.205Z,704.00
2022-08-09T05:28:29.964Z,708.00
2022-08-09T05:29:31.306Z,716.00
2022-08-09T05:30:31.482Z,720.00
2022-08-09T05:31:44.125Z,720.00
2022-08-09T05:32:30.267Z,724.00
2022-08-09T05:33:32.858Z,728.00
2022-08-09T05:34:31.812Z,732.00
2022-08-09T05:35:29.940Z,736.00
2022-08-09T05:36:29.932Z,736.00
2022-08-09T05:37:29.929Z,740.00
2022-08-09T05:38:29.924Z,748.00
2022-08-09T05:39:36.523Z,748.00
2022-08-09T05:40:29.917Z,752.00
2022-08-09T05:41:29.913Z,756.00
2022-08-09T05:42:29.912Z,756.00
2022-08-09T05:43:31.839Z,764.00
2022-08-09T05:44:32.889Z,764.00
2022-08-09T05:45:53.066Z,772.00
2022-08-09T05:46:29.894Z,776.00
2022-08-09T05:47:30.319Z,780.00
2022-08-09T05:48:33.301Z,780.00
2022-08-09T05:50:30.833Z,784.00
2022-08-09T05:50:36.212Z,788.00
2022-08-09T05:51:42.829Z,796.00
2022-08-09T05:52:31.612Z,796.00
2022-08-09T05:53:32.157Z,804.00
2022-08-09T05:54:29.863Z,800.00
2022-08-09T05:55:31.213Z,808.00
2022-08-09T05:56:29.851Z,808.00
2022-08-09T05:57:55.987Z,816.00
2022-08-09T05:58:29.844Z,820.00
2022-08-09T05:59:29.843Z,824.00
2022-08-09T06:00:30.309Z,824.00
2022-08-09T06:01:34.035Z,828.00
2022-08-09T06:02:29.916Z,832.00
2022-08-09T06:03:43.959Z,832.00
2022-08-09T06:04:34.885Z,836.00
2022-08-09T06:05:50.637Z,844.00
2022-08-09T06:06:29.840Z,844.00
2022-08-09T06:07:29.812Z,852.00
2022-08-09T06:08:29.813Z,852.00
2022-08-09T06:10:02.009Z,856.00
2022-08-09T06:10:29.798Z,856.00
2022-08-09T06:11:41.062Z,860.00
2022-08-09T06:12:29.795Z,868.00
2022-08-09T06:13:33.598Z,868.00
2022-08-09T06:14:29.782Z,876.00
2022-08-09T06:15:29.777Z,876.00
2022-08-09T06:16:29.788Z,876.00
2022-08-09T06:17:39.824Z,884.00
2022-08-09T06:18:29.769Z,884.00
2022-08-09T06:19:29.766Z,888.00
2022-08-09T06:20:30.318Z,892.00
2022-08-09T06:21:29.755Z,896.00
2022-08-09T06:22:29.866Z,896.00
2022-08-09T06:23:55.467Z,896.00
2022-08-09T06:24:29.746Z,896.00
2022-08-09T06:25:29.743Z,904.00
2022-08-09T06:26:29.741Z,904.00
2022-08-09T06:27:43.172Z,908.00
2022-08-09T06:28:31.932Z,904.00
2022-08-09T06:29:29.724Z,908.00
2022-08-09T06:30:30.311Z,908.00
2022-08-09T06:31:31.166Z,912.00
2022-08-09T06:33:00.825Z,912.00
2022-08-09T06:33:40.111Z,912.00
2022-08-09T06:34:29.825Z,916.00
2022-08-09T06:35:35.577Z,920.00
2022-08-09T06:36:29.967Z,920.00
2022-08-09T06:37:29.699Z,920.00
2022-08-09T06:38:36.336Z,924.00
2022-08-09T06:39:48.164Z,928.00
2022-08-09T06:40:29.723Z,928.00
2022-08-09T06:41:39.746Z,932.00
2022-08-09T06:42:30.759Z,928.00
2022-08-09T06:43:34.440Z,936.00
2022-08-09T06:44:29.669Z,936.00
2022-08-09T06:46:05.235Z,940.00
2022-08-09T06:46:39.928Z,940.00
2022-08-09T06:47:30.205Z,936.00
2022-08-09T06:48:30.739Z,940.00
2022-08-09T06:50:11.917Z,940.00
2022-08-09T06:50:31.169Z,944.00
2022-08-09T06:51:29.652Z,944.00
2022-08-09T06:52:29.692Z,948.00
2022-08-09T06:53:33.181Z,948.00
2022-08-09T06:54:29.635Z,952.00
2022-08-09T06:55:29.636Z,952.00
2022-08-09T06:56:31.002Z,952.00
2022-08-09T06:57:42.740Z,960.00
2022-08-09T07:00:47.384Z,956.00
2022-08-09T07:00:50.385Z,956.00
2022-08-09T07:00:52.914Z,956.00
2022-08-09T07:01:54.786Z,956.00
2022-08-09T07:02:31.089Z,956.00
2022-08-09T07:03:29.609Z,960.00
2022-08-09T07:04:29.599Z,964.00
2022-08-09T07:05:58.406Z,964.00
2022-08-09T07:06:29.629Z,972.00
2022-08-09T07:07:58.874Z,976.00
2022-08-09T07:08:30.606Z,984.00
2022-08-09T07:09:57.412Z,976.00
2022-08-09T07:10:32.090Z,980.00
2022-08-09T07:11:34.287Z,980.00
2022-08-09T07:12:38.847Z,984.00
2022-08-09T07:13:30.446Z,992.00
2022-08-09T07:14:29.566Z,992.00
2022-08-09T07:16:38.628Z,992.00
2022-08-09T07:16:42.522Z,992.00
2022-08-09T07:17:39.522Z,992.00
2022-08-09T07:18:29.555Z,996.00
2022-08-09T07:19:29.550Z,1000.00
2022-08-09T07:20:29.549Z,1000.00
2022-08-09T07:21:30.970Z,1004.00
2022-08-09T07:22:34.358Z,1008.00
2022-08-09T07:23:29.542Z,1012.00
2022-08-09T07:24:32.318Z,1012.00
2022-08-09T07:25:29.533Z,1016.00
2022-08-09T07:26:29.530Z,1012.00
2022-08-09T07:27:33.938Z,1012.00
2022-08-09T07:28:29.523Z,1016.00
2022-08-09T07:29:37.664Z,1016.00
2022-08-09T07:30:32.862Z,1020.00
2022-08-09T07:31:29.542Z,1024.00
2022-08-09T07:32:31.998Z,1024.00
2022-08-09T07:33:44.772Z,1028.00
2022-08-09T07:34:29.502Z,1032.00
2022-08-09T07:35:29.503Z,1032.00
2022-08-09T07:36:29.498Z,1028.00
2022-08-09T07:37:29.502Z,1032.00
2022-08-09T07:38:31.210Z,1032.00
2022-08-09T07:39:41.360Z,1036.00
2022-08-09T07:40:46.250Z,1040.00
2022-08-09T07:41:33.147Z,1036.00
2022-08-09T07:42:32.893Z,1040.00
2022-08-09T07:43:29.476Z,1040.00
2022-08-09T07:44:50.816Z,1040.00
2022-08-09T07:45:39.473Z,1044.00
2022-08-09T07:46:29.467Z,1048.00
2022-08-09T07:47:29.465Z,1048.00
2022-08-09T07:48:30.725Z,1056.00
2022-08-09T07:49:29.457Z,1056.00
2022-08-09T07:50:33.015Z,1052.00
2022-08-09T07:52:05.941Z,1064.00
2022-08-09T07:52:29.444Z,1056.00
2022-08-09T07:53:45.059Z,1060.00
2022-08-09T07:54:30.855Z,1068.00
2022-08-09T07:55:29.439Z,1064.00
2022-08-09T07:56:30.966Z,1064.00
2022-08-09T07:57:33.849Z,1064.00
2022-08-09T07:58:29.429Z,1064.00
2022-08-09T07:59:45.677Z,1068.00
2022-08-09T08:00:35.664Z,1072.00
2022-08-09T08:01:33.953Z,1072.00
2022-08-09T08:02:29.518Z,1076.00
2022-08-09T08:03:29.416Z,1076.00
2022-08-09T08:04:32.335Z,1080.00
2022-08-09T08:05:29.411Z,1080.00
2022-08-09T08:06:31.902Z,1080.00
2022-08-09T08:08:43.863Z,1088.00
2022-08-09T08:09:00.418Z,1084.00
2022-08-09T08:09:38.683Z,1088.00
2022-08-09T08:10:29.398Z,1088.00
2022-08-09T08:12:09.762Z,1088.00
2022-08-09T08:12:31.087Z,1092.00
2022-08-09T08:13:29.388Z,1096.00
2022-08-09T08:14:29.384Z,1100.00
2022-08-09T08:15:29.387Z,1100.00
2022-08-09T08:16:31.834Z,1100.00
2022-08-09T08:17:52.376Z,1108.00
2022-08-09T08:18:29.374Z,1104.00
2022-08-09T08:19:31.334Z,1104.00
2022-08-09T08:20:32.297Z,1108.00
2022-08-09T08:21:29.369Z,1112.00
2022-08-09T08:22:29.366Z,1120.00
2022-08-09T08:23:29.357Z,1112.00
2022-08-09T08:24:40.143Z,1116.00
2022-08-09T08:25:43.983Z,1120.00
2022-08-09T08:26:54.856Z,1120.00
2022-08-09T08:27:29.355Z,1120.00
2022-08-09T08:28:32.787Z,1124.00
2022-08-09T08:29:39.629Z,1124.00
2022-08-09T08:30:29.346Z,1128.00
2022-08-09T08:32:02.322Z,1132.00
2022-08-09T08:32:52.762Z,1128.00
2022-08-09T08:33:49.657Z,1128.00
2022-08-09T08:34:29.332Z,1136.00
2022-08-09T08:35:37.129Z,1136.00
2022-08-09T08:36:30.779Z,1140.00
2022-08-09T08:37:41.676Z,1140.00
2022-08-09T08:38:29.323Z,1144.00
2022-08-09T08:39:29.362Z,1152.00
2022-08-09T08:40:36.926Z,1156.00
2022-08-09T08:42:33.637Z,1156.00
2022-08-09T08:43:33.265Z,1168.00
2022-08-09T08:45:38.043Z,1168.00
2022-08-09T08:46:41.360Z,1168.00
2022-08-09T08:48:51.350Z,1188.00
2022-08-09T08:49:47.971Z,1180.00
2022-08-09T08:50:41.289Z,1188.00
2022-08-09T08:51:41.873Z,1188.00
2022-08-09T08:53:00.062Z,1192.00
2022-08-09T08:54:02.550Z,1192.00
2022-08-09T08:54:41.279Z,1196.00
2022-08-09T08:55:41.652Z,1200.00
2022-08-09T08:56:41.313Z,1200.00
2022-08-09T08:57:41.273Z,1204.00
2022-08-09T08:58:44.425Z,1204.00
2022-08-09T08:59:44.529Z,1204.00
2022-08-09T09:00:41.280Z,1208.00
2022-08-09T09:01:52.335Z,1212.00
2022-08-09T09:02:41.572Z,1212.00
2022-08-09T09:03:41.308Z,1212.00
2022-08-09T09:04:47.878Z,1220.00
2022-08-09T09:06:01.063Z,1224.00
2022-08-09T09:06:41.255Z,1224.00
2022-08-09T09:07:42.276Z,1228.00
2022-08-09T09:08:42.523Z,1228.00
2022-08-09T09:10:02.332Z,1232.00
2022-08-09T09:10:41.243Z,1232.00
2022-08-09T09:11:41.243Z,1236.00
2022-08-09T09:12:41.243Z,1240.00
2022-08-09T09:13:54.911Z,1240.00
2022-08-09T09:14:41.239Z,1244.00
2022-08-09T09:15:41.239Z,1248.00
2022-08-09T09:16:41.235Z,1248.00
2022-08-09T09:17:51.729Z,1252.00
2022-08-09T09:18:44.600Z,1256.00
2022-08-09T09:19:42.003Z,1252.00
2022-08-09T09:20:41.224Z,1260.00
2022-08-09T09:21:43.413Z,1260.00
2022-08-09T09:22:41.249Z,1264.00
2022-08-09T09:23:41.217Z,1268.00
2022-08-09T09:24:43.552Z,1272.00
2022-08-09T09:26:03.097Z,1272.00
2022-08-09T09:26:43.625Z,1284.00
2022-08-09T09:28:06.896Z,1284.00
2022-08-09T09:29:03.761Z,1288.00
2022-08-09T09:30:13.893Z,1292.00
2022-08-09T09:30:41.753Z,1296.00
2022-08-09T09:32:06.163Z,1296.00
2022-08-09T09:32:41.204Z,1300.00
2022-08-09T09:33:44.650Z,1300.00
2022-08-09T09:34:41.196Z,1308.00
2022-08-09T09:35:43.877Z,1308.00
2022-08-09T09:36:51.068Z,1312.00
2022-08-09T09:37:41.196Z,1316.00
2022-08-09T09:38:41.190Z,1316.00
2022-08-09T09:39:50.334Z,1316.00
2022-08-09T09:40:41.193Z,1320.00
2022-08-09T09:41:49.100Z,1324.00
2022-08-09T09:42:46.011Z,1324.00
2022-08-09T09:44:12.680Z,1324.00
2022-08-09T09:44:41.189Z,1332.00
2022-08-09T09:45:56.850Z,1340.00
2022-08-09T09:46:46.209Z,1344.00
2022-08-09T09:47:48.070Z,1348.00
2022-08-09T09:48:41.188Z,1348.00
2022-08-09T09:50:07.179Z,1356.00
2022-08-09T09:50:42.193Z,1352.00
2022-08-09T09:51:41.179Z,1356.00
2022-08-09T09:52:41.178Z,1364.00
2022-08-09T09:53:57.199Z,1360.00
2022-08-09T09:54:41.202Z,1368.00
2022-08-09T09:55:41.171Z,1376.00
2022-08-09T09:56:53.201Z,1384.00
2022-08-09T09:58:00.542Z,1384.00
2022-08-09T09:58:41.165Z,1384.00
2022-08-09T09:59:41.173Z,1388.00
2022-08-09T10:00:41.164Z,1392.00
2022-08-09T10:01:41.167Z,1392.00
2022-08-09T10:02:41.163Z,1396.00
2022-08-09T10:03:42.889Z,1396.00
2022-08-09T10:04:41.160Z,1404.00
2022-08-09T10:06:00.869Z,1412.00
2022-08-09T10:06:42.944Z,1416.00
2022-08-09T10:08:01.031Z,1428.00
2022-08-09T10:08:43.090Z,1424.00
2022-08-09T10:09:45.521Z,1432.00
2022-08-09T10:10:41.150Z,1436.00
2022-08-09T10:11:56.990Z,1440.00
2022-08-09T10:12:43.538Z,1448.00
2022-08-09T10:13:43.295Z,1452.00
2022-08-09T10:14:48.011Z,1452.00
2022-08-09T10:16:08.772Z,1460.00
2022-08-09T10:16:57.723Z,1464.00
2022-08-09T10:17:55.119Z,1464.00
2022-08-09T10:18:41.144Z,1476.00
2022-08-09T10:19:41.144Z,1480.00
2022-08-09T10:20:44.688Z,1480.00
2022-08-09T10:21:41.144Z,1484.00
2022-08-09T10:22:41.304Z,1492.00
2022-08-09T10:23:41.142Z,1500.00
2022-08-09T10:24:41.142Z,1500.00
2022-08-09T10:26:07.447Z,1508.00
2022-08-09T10:26:41.155Z,1512.00
2022-08-09T10:27:56.569Z,1520.00
2022-08-09T10:28:41.139Z,1528.00
2022-08-09T10:30:16.501Z,1540.00
2022-08-09T10:32:20.904Z,1556.00
2022-08-09T10:32:37.378Z,1552.00
2022-08-09T10:32:42.602Z,1560.00
2022-08-09T10:34:09.173Z,1580.00
2022-08-09T10:34:41.143Z,1580.00
2022-08-09T10:35:41.122Z,1596.00
2022-08-09T10:36:42.220Z,1596.00
2022-08-09T10:37:42.048Z,1608.00
2022-08-09T10:38:55.928Z,1616.00
2022-08-09T10:39:49.527Z,1624.00
2022-08-09T10:40:44.728Z,1640.00
2022-08-09T10:41:41.131Z,1648.00
2022-08-09T10:42:41.129Z,1656.00
2022-08-09T10:43:59.929Z,1672.00
2022-08-09T10:44:41.127Z,1680.00
2022-08-09T10:45:49.437Z,1688.00
2022-08-09T10:46:54.775Z,1708.00
2022-08-09T10:48:20.439Z,1716.00
2022-08-09T10:48:41.117Z,1732.00
2022-08-09T10:49:42.365Z,1736.00
2022-08-09T10:50:41.123Z,1756.00
2022-08-09T10:51:41.480Z,1768.00
2022-08-09T10:52:42.607Z,1780.00
2022-08-09T10:53:46.859Z,1788.00
2022-08-09T10:54:41.127Z,1812.00
2022-08-09T10:55:58.715Z,1832.00
2022-08-09T10:56:41.126Z,1848.00
2022-08-09T10:57:41.852Z,1872.00
2022-08-09T10:58:42.836Z,1892.00
2022-08-09T10:59:43.440Z,1908.00
2022-08-09T11:00:50.750Z,1928.00
2022-08-09T11:03:06.724Z,1964.00
2022-08-09T11:03:46.751Z,1940.00
2022-08-09T11:03:51.227Z,1992.00
2022-08-09T11:04:55.702Z,2016.00
2022-08-09T11:05:41.220Z,2028.00
2022-08-09T11:06:44.863Z,2044.00
2022-08-09T11:07:57.038Z,2060.00
2022-08-09T11:08:47.400Z,2080.00
2022-08-09T11:09:48.756Z,2096.00
2022-08-09T11:10:41.123Z,2120.00
2022-08-09T11:11:43.617Z,2148.00
2022-08-09T11:12:41.124Z,2164.00
2022-08-09T11:13:53.791Z,2176.00
2022-08-09T11:14:41.125Z,2192.00
2022-08-09T11:15:50.741Z,2208.00
2022-08-09T11:16:41.493Z,2220.00
2022-08-09T11:17:41.987Z,2248.00
2022-08-09T11:18:41.121Z,2264.00
2022-08-09T11:20:11.701Z,2288.00
2022-08-09T11:20:41.121Z,2324.00
2022-08-09T11:21:41.383Z,2404.00
2022-08-09T11:22:41.127Z,2476.00
2022-08-09T11:23:41.125Z,2532.00
2022-08-09T11:24:41.127Z,2588.00
2022-08-09T11:25:47.211Z,2620.00
2022-08-09T11:26:52.044Z,2676.00
2022-08-09T11:28:08.086Z,2712.00
2022-08-09T11:28:56.643Z,2680.00
2022-08-09T11:30:06.265Z,2732.00
2022-08-09T11:30:48.015Z,2912.00
2022-08-09T11:31:43.085Z,3644.00
2022-08-09T11:32:41.134Z,4752.00
2022-08-09T11:33:41.129Z,5656.00
2022-08-09T11:34:41.128Z,6248.00
2022-08-09T11:35:49.516Z,6660.00
2022-08-09T11:36:41.131Z,6944.00
2022-08-09T11:37:41.533Z,7276.00
2022-08-09T11:38:41.513Z,7904.00
2022-08-09T11:39:41.209Z,12380.00
2022-08-09T11:40:41.134Z,18688.00
2022-08-09T11:41:41.144Z,19968.00
2022-08-09T11:42:41.136Z,20448.00
2022-08-09T11:43:41.140Z,20640.00
2022-08-09T11:44:41.138Z,20576.00
2022-08-09T11:45:42.902Z,20832.00
2022-08-09T11:46:41.144Z,20640.00
2022-08-09T11:47:41.144Z,20960.00
2022-08-09T11:48:41.143Z,20992.00
2022-08-09T11:49:42.840Z,20960.00
2022-08-09T11:50:54.793Z,21280.00
2022-08-09T11:53:02.800Z,20992.00
2022-08-09T11:53:03.627Z,20928.00
2022-08-09T11:54:01.074Z,21056.00
2022-08-09T11:54:41.165Z,20608.00
2022-08-09T11:55:52.154Z,20672.00
2022-08-09T11:56:42.354Z,20896.00
2022-08-09T11:58:00.733Z,20480.00
2022-08-09T11:58:41.168Z,20832.00
2022-08-09T11:59:41.173Z,20576.00
2022-08-09T12:00:41.175Z,20128.00
2022-08-09T12:02:17.154Z,19584.00
2022-08-09T12:02:41.264Z,16448.00
2022-08-09T12:03:57.272Z,19040.00
2022-08-09T12:04:41.254Z,20576.00
2022-08-09T12:05:47.246Z,20512.00
2022-08-09T12:06:41.200Z,20928.00
2022-08-09T12:07:42.449Z,20832.00
2022-08-09T12:08:41.205Z,20736.00
2022-08-09T12:09:41.214Z,21024.00
2022-08-09T12:10:41.217Z,20928.00
2022-08-09T12:12:02.230Z,20576.00
2022-08-09T12:12:41.340Z,20288.00
2022-08-09T12:14:07.194Z,20352.00
2022-08-09T12:15:03.891Z,20352.00
2022-08-09T12:15:50.323Z,20672.00
2022-08-09T12:16:41.247Z,20416.00
2022-08-09T12:17:43.595Z,19584.00
2022-08-09T12:18:41.297Z,19904.00
2022-08-09T12:19:41.257Z,19360.00
2022-08-09T12:20:41.259Z,11164.00
2022-08-09T12:21:48.802Z,16864.00
2022-08-09T12:22:41.270Z,14368.00
2022-08-09T12:23:57.981Z,13360.00
2022-08-09T12:24:41.275Z,11888.00
2022-08-09T12:25:49.405Z,11088.00
2022-08-09T12:26:41.284Z,10728.00
2022-08-09T12:28:58.461Z,10540.00
2022-08-09T12:28:58.674Z,10204.00
2022-08-09T12:29:44.477Z,10028.00
2022-08-09T12:30:41.298Z,9816.00
2022-08-09T12:32:01.615Z,9664.00
2022-08-09T12:32:41.310Z,9524.00
2022-08-09T12:33:58.754Z,9492.00
2022-08-09T12:34:41.315Z,9512.00
2022-08-09T12:35:41.806Z,9440.00